Time;durP1;ratioP1;P1;durP2;ratioP2;P2;SDS_P1;SDS_P2;PMS_P1;PMS_P2;Temp;Humidity;BMP_temperature;BMP_pressure;BME280_temperature;BME280_humidity;BME280_pressure;Samples;Min_cycle;Max_cycle;Signal;HPM_P1;HPM_P2
2022/05/10 00:02:16;;;;;;;;;23.33;23.33;;;;;;;;5123716;27;45313;-76
2022/05/10 00:04:44;;;;;;;;;29.67;28.67;;;;;;;;5121840;27;46731;-77
2022/05/10 00:07:10;;;;;;;;;27.00;27.00;;;;;;;;5122292;27;45223;-76
2022/05/10 00:09:35;;;;;;;;;29.67;28.00;;;;;;;;5121670;27;45356;-75
2022/05/10 00:12:00;;;;;;;;;29.33;28.33;;;;;;;;5123322;27;45607;-76
2022/05/10 00:14:27;;;;;;;;;26.67;26.33;;;;;;;;5122861;27;45359;-76
2022/05/10 00:16:53;;;;;;;;;20.33;20.00;;;;;;;;5103153;27;45414;-76
2022/05/10 00:19:18;;;;;;;;;27.00;26.67;;;;;;;;5101950;27;45278;-75
2022/05/10 00:21:44;;;;;;;;;28.67;28.33;;;;;;;;5102061;27;45419;-76
2022/05/10 00:24:10;;;;;;;;;28.00;26.67;;;;;;;;5101539;27;45471;-76
2022/05/10 00:26:35;;;;;;;;;25.33;25.33;;;;;;;;5102138;27;45377;-76
2022/05/10 00:29:01;;;;;;;;;25.00;25.00;;;;;;;;5102340;27;45320;-76
2022/05/10 00:31:26;;;;;;;;;27.00;27.00;;;;;;;;5100373;27;45353;-76
2022/05/10 00:33:52;;;;;;;;;30.25;29.00;;;;;;;;5101893;27;45329;-77
2022/05/10 00:36:18;;;;;;;;;28.00;27.00;;;;;;;;5101181;27;45329;-77
2022/05/10 00:38:43;;;;;;;;;29.00;28.00;;;;;;;;5100588;27;45303;-77
2022/05/10 00:41:27;;;;;;;;;28.67;28.33;;;;;;;;5100793;27;45756;-76
2022/05/10 00:43:59;;;;;;;;;28.00;26.00;;;;;;;;5101636;27;45581;-76
2022/05/10 00:46:29;;;;;;;;;28.33;27.33;;;;;;;;5101443;27;46208;-76
2022/05/10 00:48:54;;;;;;;;;26.67;26.67;;;;;;;;5101463;27;45278;-76
2022/05/10 00:51:55;;;;;;;;;31.00;29.00;;;;;;;;5101100;27;45289;-75
2022/05/10 00:54:20;;;;;;;;;29.75;28.00;;;;;;;;5061861;28;47141;-76
2022/05/10 00:56:50;;;;;;;;;30.33;28.67;;;;;;;;5096831;27;45481;-76
2022/05/10 00:59:21;;;;;;;;;30.33;28.33;;;;;;;;5101255;27;45334;-76
2022/05/10 01:01:49;;;;;;;;;22.00;21.33;;;;;;;;5100530;27;45331;-76
2022/05/10 01:04:32;;;;;;;;;32.25;29.75;;;;;;;;5101650;27;45473;-76
2022/05/10 01:07:03;;;;;;;;;29.33;28.67;;;;;;;;5101252;27;45319;-76
2022/05/10 01:09:28;;;;;;;;;28.67;27.00;;;;;;;;5101315;27;45282;-76
2022/05/10 01:11:59;;;;;;;;;27.67;27.67;;;;;;;;5101229;27;45266;-75
2022/05/10 01:14:28;;;;;;;;;26.67;26.00;;;;;;;;5101642;27;45314;-76
2022/05/10 01:16:53;;;;;;;;;28.00;27.67;;;;;;;;5120542;27;46304;-76
2022/05/10 01:19:19;;;;;;;;;28.00;27.33;;;;;;;;5121316;27;45322;-75
2022/05/10 01:21:44;;;;;;;;;31.33;29.67;;;;;;;;5122099;27;45347;-77
2022/05/10 01:24:09;;;;;;;;;31.67;29.67;;;;;;;;5121684;27;45301;-77
2022/05/10 01:26:40;;;;;;;;;31.00;28.00;;;;;;;;5122563;27;45548;-76
2022/05/10 01:29:13;;;;;;;;;30.00;28.67;;;;;;;;5122186;27;45407;-75
2022/05/10 01:31:41;;;;;;;;;25.00;25.00;;;;;;;;5121441;27;45320;-76
2022/05/10 01:34:09;;;;;;;;;25.00;25.00;;;;;;;;5119577;27;46087;-75
2022/05/10 01:36:43;;;;;;;;;29.33;27.33;;;;;;;;5121032;27;46177;-76
2022/05/10 01:39:10;;;;;;;;;28.33;28.00;;;;;;;;5119987;27;45328;-76
2022/05/10 01:41:44;;;;;;;;;31.00;29.33;;;;;;;;5121350;27;45510;-76
2022/05/10 01:44:14;;;;;;;;;32.33;30.33;;;;;;;;5121347;27;45372;-76
2022/05/10 01:46:40;;;;;;;;;30.00;29.00;;;;;;;;5121103;27;45442;-76
2022/05/10 01:49:22;;;;;;;;;29.75;28.50;;;;;;;;5120973;27;45355;-76
2022/05/10 01:52:08;;;;;;;;;31.25;29.75;;;;;;;;5120983;27;45332;-76
2022/05/10 01:54:39;;;;;;;;;33.00;30.75;;;;;;;;5098239;27;45904;-76
2022/05/10 01:57:07;;;;;;;;;28.75;28.00;;;;;;;;5120473;27;45409;-76
2022/05/10 01:59:32;;;;;;;;;30.00;27.67;;;;;;;;5120530;27;45402;-76
2022/05/10 02:01:58;;;;;;;;;28.67;27.00;;;;;;;;5121135;27;45381;-76
2022/05/10 02:04:28;;;;;;;;;30.00;29.33;;;;;;;;5119317;27;45936;-76
2022/05/10 02:07:02;;;;;;;;;32.00;30.00;;;;;;;;5120398;27;46407;-74
2022/05/10 02:09:37;;;;;;;;;28.00;28.00;;;;;;;;5118855;27;45316;-75
2022/05/10 02:12:07;;;;;;;;;30.00;28.33;;;;;;;;5120748;27;45355;-76
2022/05/10 02:14:37;;;;;;;;;30.67;26.67;;;;;;;;5120078;27;45376;-76
2022/05/10 02:17:21;;;;;;;;;31.33;28.67;;;;;;;;5098552;27;47245;-76
2022/05/10 02:19:53;;;;;;;;;28.00;28.00;;;;;;;;5100463;27;45392;-76
2022/05/10 02:22:22;;;;;;;;;25.67;25.67;;;;;;;;5098466;27;45429;-76
2022/05/10 02:24:51;;;;;;;;;25.00;25.00;;;;;;;;5100044;27;45543;-75
2022/05/10 02:27:30;;;;;;;;;29.33;28.00;;;;;;;;5100359;27;45248;-76
2022/05/10 02:29:59;;;;;;;;;31.67;30.00;;;;;;;;5100007;27;45409;-76
2022/05/10 02:35:13;;;;;;;;;29.50;28.50;;;;;;;;5100214;27;45322;-76
2022/05/10 02:37:38;;;;;;;;;30.00;28.67;;;;;;;;5100350;27;46375;-76
2022/05/10 02:40:05;;;;;;;;;30.33;29.33;;;;;;;;5101342;27;45324;-76
2022/05/10 02:42:30;;;;;;;;;28.33;27.00;;;;;;;;5099994;27;45206;-76
2022/05/10 02:44:56;;;;;;;;;29.67;27.67;;;;;;;;5100125;27;45356;-76
2022/05/10 02:47:29;;;;;;;;;31.67;29.00;;;;;;;;5099531;27;46432;-75
2022/05/10 02:49:54;;;;;;;;;30.50;29.25;;;;;;;;5099487;27;45381;-76
2022/05/10 02:52:19;;;;;;;;;31.00;30.00;;;;;;;;5099329;27;45195;-75
2022/05/10 02:54:45;;;;;;;;;28.33;27.67;;;;;;;;5099902;27;45267;-76
2022/05/10 02:57:10;;;;;;;;;29.33;28.33;;;;;;;;5098123;27;48390;-76
2022/05/10 02:59:37;;;;;;;;;29.33;28.00;;;;;;;;5099916;27;45351;-76
2022/05/10 03:02:12;;;;;;;;;28.00;28.00;;;;;;;;5099952;27;45346;-76
2022/05/10 03:04:39;;;;;;;;;29.75;29.25;;;;;;;;5098264;27;46350;-76
2022/05/10 03:07:06;;;;;;;;;29.75;29.50;;;;;;;;5097791;27;47193;-76
2022/05/10 03:09:32;;;;;;;;;27.00;25.33;;;;;;;;5099487;27;45349;-75
2022/05/10 03:11:57;;;;;;;;;31.00;29.25;;;;;;;;5099713;27;45257;-75
2022/05/10 03:14:22;;;;;;;;;31.75;30.75;;;;;;;;5099072;27;45332;-75
2022/05/10 03:16:47;;;;;;;;;34.25;30.25;;;;;;;;5117999;27;46477;-76
2022/05/10 03:19:12;;;;;;;;;29.25;28.75;;;;;;;;5120023;27;45248;-76
2022/05/10 03:21:38;;;;;;;;;30.75;28.25;;;;;;;;5121020;27;45589;-76
2022/05/10 03:24:04;;;;;;;;;32.25;30.50;;;;;;;;5123522;27;45247;-76
2022/05/10 03:26:29;;;;;;;;;27.75;27.00;;;;;;;;5123416;27;46379;-75
2022/05/10 03:28:55;;;;;;;;;30.50;29.50;;;;;;;;5123798;27;45476;-76
2022/05/10 03:31:22;;;;;;;;;30.00;28.33;;;;;;;;5123355;27;45286;-76
2022/05/10 03:34:53;;;;;;;;;30.33;29.33;;;;;;;;5121805;27;47115;-75
2022/05/10 03:36:32;;;;;;;;;28.25;28.00;;;;;;;;5122438;27;46010;-76
2022/05/10 03:38:57;;;;;;;;;31.00;30.00;;;;;;;;5121358;27;45486;-75
2022/05/10 03:41:22;;;;;;;;;33.00;30.50;;;;;;;;5123113;27;45573;-75
2022/05/10 03:43:47;;;;;;;;;27.67;25.00;;;;;;;;5123328;27;45258;-75
2022/05/10 03:46:13;;;;;;;;;28.67;28.33;;;;;;;;5123087;27;45563;-76
2022/05/10 03:48:38;;;;;;;;;35.75;31.50;;;;;;;;5123490;27;45461;-75
2022/05/10 03:51:03;;;;;;;;;34.75;31.25;;;;;;;;5124673;27;45311;-75
2022/05/10 03:53:28;;;;;;;;;24.00;23.00;;;;;;;;5121861;27;46481;-75
2022/05/10 03:55:53;;;;;;;;;29.25;29.00;;;;;;;;5123289;27;45313;-75
2022/05/10 03:58:19;;;;;;;;;30.75;29.25;;;;;;;;5123400;27;45451;-76
2022/05/10 04:00:44;;;;;;;;;30.25;29.50;;;;;;;;5123436;27;45264;-75
2022/05/10 04:03:09;;;;;;;;;30.00;29.00;;;;;;;;5121727;27;47182;-76
2022/05/10 04:05:34;;;;;;;;;31.50;30.00;;;;;;;;5121746;27;47455;-75
2022/05/10 04:07:59;;;;;;;;;30.50;28.75;;;;;;;;5123244;27;45347;-76
2022/05/10 04:10:25;;;;;;;;;31.75;30.50;;;;;;;;5111782;27;45308;-75
2022/05/10 04:12:50;;;;;;;;;29.33;27.67;;;;;;;;5090452;27;45329;-75
2022/05/10 04:15:17;;;;;;;;;29.50;29.50;;;;;;;;5093616;27;46622;-76
2022/05/10 04:17:42;;;;;;;;;35.50;32.25;;;;;;;;5122584;27;45389;-75
2022/05/10 04:20:08;;;;;;;;;36.00;32.25;;;;;;;;5122874;27;45263;-75
2022/05/10 04:22:34;;;;;;;;;39.25;34.00;;;;;;;;5122560;27;45493;-76
2022/05/10 04:24:59;;;;;;;;;33.00;31.00;;;;;;;;5122321;27;45369;-75
2022/05/10 04:27:24;;;;;;;;;40.50;35.00;;;;;;;;5122539;27;45485;-76
2022/05/10 04:29:49;;;;;;;;;34.50;29.00;;;;;;;;5120772;27;45345;-75
2022/05/10 04:32:14;;;;;;;;;33.25;31.25;;;;;;;;5122476;27;45324;-75
2022/05/10 04:34:40;;;;;;;;;39.00;34.25;;;;;;;;5120026;27;47952;-76
2022/05/10 04:37:05;;;;;;;;;35.50;31.75;;;;;;;;5121762;27;45182;-76
2022/05/10 04:41:24;;;;;;;;;31.33;30.00;;;;;;;;5122843;27;45267;-77
2022/05/10 04:42:15;;;;;;;;;31.00;30.00;;;;;;;;5122219;27;45245;-76
2022/05/10 04:44:40;;;;;;;;;31.00;30.00;;;;;;;;5122126;27;45355;-76
2022/05/10 04:47:05;;;;;;;;;34.00;31.50;;;;;;;;5122376;27;45378;-76
2022/05/10 04:49:31;;;;;;;;;30.50;29.75;;;;;;;;5122335;27;45451;-76
2022/05/10 04:51:56;;;;;;;;;30.25;29.00;;;;;;;;5090128;27;45446;-76
2022/05/10 04:54:21;;;;;;;;;35.50;31.25;;;;;;;;5080598;27;46064;-76
2022/05/10 04:56:46;;;;;;;;;35.25;31.75;;;;;;;;5080519;27;45321;-76
2022/05/10 04:59:12;;;;;;;;;33.00;30.00;;;;;;;;5081180;28;45409;-76
2022/05/10 05:01:37;;;;;;;;;30.75;29.75;;;;;;;;5080798;28;45295;-76
2022/05/10 05:04:02;;;;;;;;;34.67;30.33;;;;;;;;5079512;28;47131;-76
2022/05/10 05:06:28;;;;;;;;;33.00;31.00;;;;;;;;5080658;27;45367;-76
2022/05/10 05:08:54;;;;;;;;;31.00;30.00;;;;;;;;5081114;28;45240;-76
2022/05/10 05:11:19;;;;;;;;;31.00;30.33;;;;;;;;5081149;27;45280;-77
2022/05/10 05:13:45;;;;;;;;;31.33;29.00;;;;;;;;5079241;27;47612;-76
2022/05/10 05:16:10;;;;;;;;;33.67;30.67;;;;;;;;5106204;27;45356;-76
2022/05/10 05:18:35;;;;;;;;;33.33;31.00;;;;;;;;5080461;27;45306;-76
2022/05/10 05:21:01;;;;;;;;;31.75;30.00;;;;;;;;5080475;27;45292;-76
2022/05/10 05:23:26;;;;;;;;;41.75;35.75;;;;;;;;5082873;27;45248;-77
2022/05/10 05:25:55;;;;;;;;;45.50;38.00;;;;;;;;5080854;27;45314;-76
2022/05/10 05:28:21;;;;;;;;;37.50;32.50;;;;;;;;5079879;27;45332;-76
2022/05/10 05:30:47;;;;;;;;;27.00;27.00;;;;;;;;5079452;27;45316;-76
2022/05/10 05:33:12;;;;;;;;;29.33;27.67;;;;;;;;5079379;27;45317;-76
2022/05/10 05:35:38;;;;;;;;;27.00;26.33;;;;;;;;5078490;27;45297;-77
2022/05/10 05:38:03;;;;;;;;;31.33;28.33;;;;;;;;5082876;27;45395;-76
2022/05/10 05:40:28;;;;;;;;;26.67;26.67;;;;;;;;5087974;27;45430;-76
2022/05/10 05:42:54;;;;;;;;;27.00;27.00;;;;;;;;5078823;28;48497;-76
2022/05/10 05:45:21;;;;;;;;;24.00;22.33;;;;;;;;5080236;27;45265;-76
2022/05/10 05:47:47;;;;;;;;;25.00;23.67;;;;;;;;5080407;27;45283;-76
2022/05/10 05:50:14;;;;;;;;;27.00;26.67;;;;;;;;5079958;27;45274;-76
2022/05/10 05:52:39;;;;;;;;;26.00;24.00;;;;;;;;5078901;28;47469;-75
2022/05/10 05:55:05;;;;;;;;;26.00;24.67;;;;;;;;5079977;27;45269;-77
2022/05/10 05:57:31;;;;;;;;;26.33;26.33;;;;;;;;5080500;28;45294;-76
2022/05/10 05:59:58;;;;;;;;;25.33;23.67;;;;;;;;5078631;28;47371;-75
2022/05/10 06:02:24;;;;;;;;;29.33;28.00;;;;;;;;5079919;27;45259;-76
2022/05/10 06:04:49;;;;;;;;;25.00;24.67;;;;;;;;5080125;27;45524;-75
2022/05/10 06:07:14;;;;;;;;;28.33;27.33;;;;;;;;5079472;27;45287;-75
2022/05/10 06:09:41;;;;;;;;;26.67;26.67;;;;;;;;5078803;28;46049;-75
2022/05/10 06:12:07;;;;;;;;;30.33;28.67;;;;;;;;5078577;28;47405;-76
2022/05/10 06:14:33;;;;;;;;;27.00;27.00;;;;;;;;5080261;27;45210;-76
2022/05/10 06:16:58;;;;;;;;;29.67;27.00;;;;;;;;5078778;28;45252;-76
2022/05/10 06:19:24;;;;;;;;;29.00;28.67;;;;;;;;5079904;27;45292;-75
2022/05/10 06:21:50;;;;;;;;;26.67;26.00;;;;;;;;5078146;28;46862;-76
2022/05/10 06:24:15;;;;;;;;;25.67;25.33;;;;;;;;5079807;27;45276;-76
2022/05/10 06:26:40;;;;;;;;;29.67;29.00;;;;;;;;5079622;27;45271;-75
2022/05/10 06:29:05;;;;;;;;;24.67;24.67;;;;;;;;5079641;27;45267;-76
2022/05/10 06:31:31;;;;;;;;;25.33;25.33;;;;;;;;5079884;27;45475;-76
2022/05/10 06:33:56;;;;;;;;;27.00;27.00;;;;;;;;5078548;28;45275;-76
2022/05/10 06:36:21;;;;;;;;;26.00;25.67;;;;;;;;5079521;27;45461;-75
2022/05/10 06:38:46;;;;;;;;;30.00;28.00;;;;;;;;5079750;27;45403;-76
2022/05/10 06:41:12;;;;;;;;;27.67;27.00;;;;;;;;5080488;27;46203;-76
2022/05/10 06:43:38;;;;;;;;;29.67;28.67;;;;;;;;5088795;27;45389;-76
2022/05/10 06:46:14;;;;;;;;;24.00;24.00;;;;;;;;5078644;28;45394;-76
2022/05/10 06:48:39;;;;;;;;;24.33;24.33;;;;;;;;5080805;28;45344;-76
2022/05/10 06:51:05;;;;;;;;;24.00;24.00;;;;;;;;5079146;28;47355;-76
2022/05/10 06:53:31;;;;;;;;;25.00;25.00;;;;;;;;5080078;27;45417;-76
2022/05/10 06:55:56;;;;;;;;;25.00;24.00;;;;;;;;5080379;27;45353;-75
2022/05/10 06:58:21;;;;;;;;;29.33;28.00;;;;;;;;5083660;27;45334;-76
2022/05/10 07:00:46;;;;;;;;;29.67;28.67;;;;;;;;5081906;28;47034;-76
2022/05/10 07:03:14;;;;;;;;;29.00;28.00;;;;;;;;5084603;28;45393;-78
2022/05/10 07:05:43;;;;;;;;;26.67;26.00;;;;;;;;5088916;27;45407;-76
2022/05/10 07:08:09;;;;;;;;;28.67;28.00;;;;;;;;5088516;27;45532;-77
2022/05/10 07:10:34;;;;;;;;;24.67;24.67;;;;;;;;5086991;27;45260;-78
2022/05/10 07:13:00;;;;;;;;;23.67;21.00;;;;;;;;5083235;28;45348;-78
2022/05/10 07:15:25;;;;;;;;;23.00;22.67;;;;;;;;5098714;27;45452;-77
2022/05/10 07:17:52;;;;;;;;;25.33;25.33;;;;;;;;5124351;27;45456;-77
2022/05/10 07:20:17;;;;;;;;;26.33;25.67;;;;;;;;5123574;27;46157;-77
2022/05/10 07:22:43;;;;;;;;;27.67;25.33;;;;;;;;5120984;27;45620;-77
2022/05/10 07:25:11;;;;;;;;;23.67;23.67;;;;;;;;5121662;27;45344;-77
2022/05/10 07:27:36;;;;;;;;;25.00;24.67;;;;;;;;5120143;27;46135;-77
2022/05/10 07:30:02;;;;;;;;;23.00;21.00;;;;;;;;5120770;27;47030;-77
2022/05/10 07:32:27;;;;;;;;;24.00;24.00;;;;;;;;5121531;27;45402;-76
2022/05/10 07:34:53;;;;;;;;;21.33;21.33;;;;;;;;5124844;27;45393;-77
2022/05/10 07:37:18;;;;;;;;;22.67;21.00;;;;;;;;5124062;27;45404;-77
2022/05/10 07:39:43;;;;;;;;;25.67;24.67;;;;;;;;5123360;27;46994;-78
2022/05/10 07:42:09;;;;;;;;;21.67;21.67;;;;;;;;5128136;27;45296;-77
2022/05/10 07:44:34;;;;;;;;;24.33;24.33;;;;;;;;5129395;27;45250;-77
2022/05/10 07:46:59;;;;;;;;;24.00;23.67;;;;;;;;5127729;27;45308;-78
2022/05/10 07:49:25;;;;;;;;;26.00;25.33;;;;;;;;5130013;27;45514;-77
2022/05/10 07:51:50;;;;;;;;;26.33;26.00;;;;;;;;5124983;27;45363;-78
2022/05/10 07:54:15;;;;;;;;;25.33;25.00;;;;;;;;5128454;27;45296;-78
2022/05/10 07:56:41;;;;;;;;;23.00;22.67;;;;;;;;5131101;27;45284;-78
2022/05/10 07:59:06;;;;;;;;;23.33;23.33;;;;;;;;5130218;27;46272;-77
2022/05/10 08:01:31;;;;;;;;;24.67;24.67;;;;;;;;5132822;27;45404;-77
2022/05/10 08:03:56;;;;;;;;;25.67;25.67;;;;;;;;5132077;27;45304;-78
2022/05/10 08:06:22;;;;;;;;;23.00;23.00;;;;;;;;5131646;27;45359;-77
2022/05/10 08:08:48;;;;;;;;;21.33;21.33;;;;;;;;5128107;27;45321;-77
2022/05/10 08:11:14;;;;;;;;;24.33;23.00;;;;;;;;5126689;27;45978;-78
2022/05/10 08:13:40;;;;;;;;;20.33;20.33;;;;;;;;5128042;27;45367;-78
2022/05/10 08:16:07;;;;;;;;;21.33;21.00;;;;;;;;5118195;27;45500;-77
2022/05/10 08:18:33;;;;;;;;;27.50;25.00;;;;;;;;5110333;27;45468;-77
2022/05/10 08:20:59;;;;;;;;;24.00;23.67;;;;;;;;5106790;27;45368;-78
2022/05/10 08:23:27;;;;;;;;;24.00;23.33;;;;;;;;5103319;27;45298;-78
2022/05/10 08:25:56;;;;;;;;;29.33;26.67;;;;;;;;5103932;27;45344;-78
2022/05/10 08:28:22;;;;;;;;;23.00;22.00;;;;;;;;5103168;27;45214;-78
2022/05/10 08:30:48;;;;;;;;;25.33;25.33;;;;;;;;5102561;27;45255;-77
2022/05/10 08:33:19;;;;;;;;;27.00;27.00;;;;;;;;5102618;27;45350;-77
2022/05/10 08:35:45;;;;;;;;;25.67;25.00;;;;;;;;5104588;27;45146;-75
2022/05/10 08:38:10;;;;;;;;;25.67;25.33;;;;;;;;5106192;27;47292;-76
2022/05/10 08:40:37;;;;;;;;;24.00;23.33;;;;;;;;5107187;27;45310;-76
2022/05/10 08:43:04;;;;;;;;;24.67;23.67;;;;;;;;5102921;27;45278;-77
2022/05/10 08:45:33;;;;;;;;;23.33;22.33;;;;;;;;5105789;27;45278;-75
2022/05/10 08:47:58;;;;;;;;;24.67;23.00;;;;;;;;5105852;27;45236;-75
2022/05/10 08:50:23;;;;;;;;;25.33;25.00;;;;;;;;5106402;27;45464;-75
2022/05/10 08:52:51;;;;;;;;;22.33;21.67;;;;;;;;5104416;27;45261;-77
2022/05/10 08:55:21;;;;;;;;;21.67;21.67;;;;;;;;5106373;27;45278;-77
2022/05/10 08:57:51;;;;;;;;;21.67;21.00;;;;;;;;5105651;27;45366;-78
2022/05/10 09:00:45;;;;;;;;;19.00;19.00;;;;;;;;5104320;27;45274;-76
2022/05/10 09:03:17;;;;;;;;;22.33;22.33;;;;;;;;5085670;27;45365;-76
2022/05/10 09:05:43;;;;;;;;;20.67;19.00;;;;;;;;5104498;27;46210;-77
2022/05/10 09:08:17;;;;;;;;;21.67;21.67;;;;;;;;5105552;27;48323;-76
2022/05/10 09:10:51;;;;;;;;;18.67;18.67;;;;;;;;5103799;27;45201;-77
2022/05/10 09:13:17;;;;;;;;;21.67;21.67;;;;;;;;5104282;27;45421;-78
2022/05/10 09:16:02;;;;;;;;;23.33;23.33;;;;;;;;5115448;27;45286;-76
2022/05/10 09:18:29;;;;;;;;;20.00;20.00;;;;;;;;5122580;27;47312;-78
2022/05/10 09:21:13;;;;;;;;;22.67;21.67;;;;;;;;5125384;27;45308;-77
2022/05/10 09:23:39;;;;;;;;;20.67;19.33;;;;;;;;5123870;27;45368;-77
2022/05/10 09:26:04;;;;;;;;;23.33;23.33;;;;;;;;5123182;27;45258;-77
2022/05/10 09:28:53;;;;;;;;;21.67;21.00;;;;;;;;5122687;27;47316;-78
2022/05/10 09:36:52;;;;;;;;;25.67;25.67;;;;;;;;5091257;27;45342;-77
2022/05/10 09:39:28;;;;;;;;;23.33;23.33;;;;;;;;5080584;27;45332;-77
2022/05/10 09:41:53;;;;;;;;;20.00;20.00;;;;;;;;5081803;27;45561;-77
2022/05/10 09:44:21;;;;;;;;;16.67;16.67;;;;;;;;5083766;27;45680;-79
2022/05/10 09:46:47;;;;;;;;;20.00;20.00;;;;;;;;5085238;27;45621;-77
2022/05/10 09:49:31;;;;;;;;;19.67;19.67;;;;;;;;5102447;27;46088;-77
2022/05/10 09:51:57;;;;;;;;;18.00;18.00;;;;;;;;5107650;27;45302;-79
2022/05/10 09:54:30;;;;;;;;;18.00;18.00;;;;;;;;5104779;27;45258;-79
2022/05/10 09:56:56;;;;;;;;;17.33;16.00;;;;;;;;5103030;27;45305;-80
2022/05/10 09:59:21;;;;;;;;;21.67;18.00;;;;;;;;5105105;27;45312;-79
2022/05/10 10:01:48;;;;;;;;;20.00;18.33;;;;;;;;5102701;27;45285;-78
2022/05/10 10:04:32;;;;;;;;;16.67;16.67;;;;;;;;5096022;27;45356;-80
2022/05/10 10:07:04;;;;;;;;;16.67;15.67;;;;;;;;5081419;28;47050;-80
2022/05/10 10:09:30;;;;;;;;;17.67;17.67;;;;;;;;5080721;28;48187;-81
2022/05/10 10:11:56;;;;;;;;;18.00;18.00;;;;;;;;5080750;27;45270;-81
2022/05/10 10:14:33;;;;;;;;;21.33;19.33;;;;;;;;5081136;27;45270;-80
2022/05/10 10:16:59;;;;;;;;;18.00;18.00;;;;;;;;5079165;28;47119;-78
2022/05/10 10:19:27;;;;;;;;;18.67;18.33;;;;;;;;5080320;28;45456;-79
2022/05/10 10:22:11;;;;;;;;;18.00;17.33;;;;;;;;5081081;28;45320;-79
2022/05/10 10:24:59;;;;;;;;;17.67;17.67;;;;;;;;5086060;27;45360;-79
2022/05/10 10:27:47;;;;;;;;;17.33;16.00;;;;;;;;5085132;27;45294;-77
2022/05/10 10:30:31;;;;;;;;;18.33;17.67;;;;;;;;5079511;27;45366;-76
2022/05/10 10:33:10;;;;;;;;;16.33;16.33;;;;;;;;5081665;28;45463;-78
2022/05/10 10:35:42;;;;;;;;;13.67;13.67;;;;;;;;5083653;27;45301;-79
2022/05/10 10:38:14;;;;;;;;;17.33;16.00;;;;;;;;5085108;27;45369;-77
2022/05/10 10:40:41;;;;;;;;;15.67;14.33;;;;;;;;5085482;28;45284;-82
2022/05/10 10:43:28;;;;;;;;;17.33;16.33;;;;;;;;5082775;28;45863;-80
2022/05/10 10:46:12;;;;;;;;;17.67;16.00;;;;;;;;5085927;27;45439;-79
2022/05/10 10:48:48;;;;;;;;;15.00;14.67;;;;;;;;5082777;28;46328;-80
2022/05/10 10:51:15;;;;;;;;;18.33;17.00;;;;;;;;5085834;27;45297;-79
2022/05/10 10:53:41;;;;;;;;;16.00;16.00;;;;;;;;5082771;27;45401;-81
2022/05/10 10:56:12;;;;;;;;;14.33;12.67;;;;;;;;5083601;28;45286;-78
2022/05/10 10:58:56;;;;;;;;;15.67;14.00;;;;;;;;5084527;27;45381;-79
2022/05/10 11:01:29;;;;;;;;;15.00;15.00;;;;;;;;5084061;27;45462;-80
2022/05/10 11:04:03;;;;;;;;;12.67;12.67;;;;;;;;5088272;27;45326;-78
2022/05/10 11:06:34;;;;;;;;;8.67;8.67;;;;;;;;5094073;27;45435;-79
2022/05/10 11:09:02;;;;;;;;;15.00;15.00;;;;;;;;5103851;27;45321;-79
2022/05/10 11:11:34;;;;;;;;;13.67;13.33;;;;;;;;5104248;27;46456;-79
2022/05/10 11:14:22;;;;;;;;;13.67;13.67;;;;;;;;5104021;27;45263;-79
2022/05/10 11:17:05;;;;;;;;;11.67;11.67;;;;;;;;5123399;27;45247;-77
2022/05/10 11:19:43;;;;;;;;;15.00;12.67;;;;;;;;5124235;27;45362;-76
2022/05/10 11:22:11;;;;;;;;;15.33;15.33;;;;;;;;5123226;27;45701;-78
2022/05/10 11:24:55;;;;;;;;;14.00;13.00;;;;;;;;5124164;27;45250;-77
2022/05/10 11:27:27;;;;;;;;;16.33;15.33;;;;;;;;5122414;27;45268;-78
2022/05/10 11:29:52;;;;;;;;;13.33;13.33;;;;;;;;5123348;27;46260;-79
2022/05/10 11:32:41;;;;;;;;;11.33;10.67;;;;;;;;5090696;27;46339;-78
2022/05/10 11:35:19;;;;;;;;;12.33;11.33;;;;;;;;5083903;27;45231;-78
2022/05/10 11:37:44;;;;;;;;;16.33;13.67;;;;;;;;5082501;27;45636;-79
2022/05/10 11:40:21;;;;;;;;;12.67;12.67;;;;;;;;5082674;27;45294;-78
2022/05/10 11:43:04;;;;;;;;;14.00;14.00;;;;;;;;5080626;28;47391;-77
2022/05/10 11:45:44;;;;;;;;;13.00;13.00;;;;;;;;5082197;27;45366;-77
2022/05/10 11:48:29;;;;;;;;;9.67;8.67;;;;;;;;5080794;27;45349;-78
2022/05/10 11:53:59;;;;;;;;;15.67;14.00;;;;;;;;5081678;28;45738;-78
2022/05/10 11:56:29;;;;;;;;;11.00;11.00;;;;;;;;5082006;27;45306;-78
2022/05/10 11:58:55;;;;;;;;;14.33;13.67;;;;;;;;5080663;28;45428;-79
2022/05/10 12:01:41;;;;;;;;;15.67;15.67;;;;;;;;5081883;27;45360;-77
2022/05/10 12:04:06;;;;;;;;;10.33;10.33;;;;;;;;5084179;27;47095;-78
2022/05/10 12:06:33;;;;;;;;;12.00;12.00;;;;;;;;5101476;27;45267;-78
2022/05/10 12:09:00;;;;;;;;;12.33;11.67;;;;;;;;5102190;27;45283;-78
2022/05/10 12:11:28;;;;;;;;;14.67;14.67;;;;;;;;5102215;27;45435;-79
2022/05/10 12:22:08;;;;;;;;;12.67;12.67;;;;;;;;5107889;27;45275;-78
2022/05/10 12:24:39;;;;;;;;;14.67;13.33;;;;;;;;5086754;27;45660;-79
2022/05/10 12:27:10;;;;;;;;;13.00;13.00;;;;;;;;5094008;27;45227;-80
2022/05/10 12:29:38;;;;;;;;;14.33;14.33;;;;;;;;5083605;27;45573;-78
2022/05/10 12:32:23;;;;;;;;;13.00;11.67;;;;;;;;5084576;28;46687;-79
2022/05/10 12:34:56;;;;;;;;;13.33;13.33;;;;;;;;5081155;28;47352;-79
2022/05/10 12:37:35;;;;;;;;;13.00;13.00;;;;;;;;5083324;27;45375;-80
2022/05/10 12:40:04;;;;;;;;;11.00;11.00;;;;;;;;5082662;27;45226;-79
2022/05/10 12:42:32;;;;;;;;;13.67;13.33;;;;;;;;5082384;27;45274;-79
2022/05/10 12:44:57;;;;;;;;;13.67;13.00;;;;;;;;5082772;27;45417;-79
2022/05/10 12:47:41;;;;;;;;;13.00;11.33;;;;;;;;5086345;27;45289;-79
2022/05/10 12:50:27;;;;;;;;;10.00;9.67;;;;;;;;5082454;28;45521;-79
2022/05/10 12:52:52;;;;;;;;;11.00;11.00;;;;;;;;5082741;27;45338;-80
2022/05/10 12:55:19;;;;;;;;;12.00;12.00;;;;;;;;5082721;28;47296;-80
2022/05/10 12:57:54;;;;;;;;;10.00;10.00;;;;;;;;5086585;27;45344;-80
2022/05/10 13:00:21;;;;;;;;;12.00;12.00;;;;;;;;5085110;27;45259;-80
2022/05/10 13:02:51;;;;;;;;;13.33;12.00;;;;;;;;5092737;27;45495;-82
2022/05/10 13:05:19;;;;;;;;;14.33;12.33;;;;;;;;5094592;27;45569;-81
2022/05/10 13:07:53;;;;;;;;;15.33;13.33;;;;;;;;5086012;27;45275;-80
2022/05/10 13:10:23;;;;;;;;;13.00;12.67;;;;;;;;5086123;27;45157;-79
2022/05/10 13:13:00;;;;;;;;;13.67;13.67;;;;;;;;5082492;27;46234;-81
2022/05/10 13:15:26;;;;;;;;;13.00;12.00;;;;;;;;5099398;27;46541;-80
2022/05/10 13:17:54;;;;;;;;;10.67;10.67;;;;;;;;5085660;27;45411;-79
2022/05/10 13:20:22;;;;;;;;;13.00;13.00;;;;;;;;5087076;27;45436;-79
2022/05/10 13:22:52;;;;;;;;;13.33;13.33;;;;;;;;5090774;27;45629;-81
2022/05/10 13:25:25;;;;;;;;;12.33;12.33;;;;;;;;5084213;27;45466;-81
2022/05/10 13:27:52;;;;;;;;;10.00;9.33;;;;;;;;5080387;28;45772;-81
2022/05/10 13:30:18;;;;;;;;;13.33;13.33;;;;;;;;5083622;27;45291;-80
2022/05/10 13:32:48;;;;;;;;;10.00;10.00;;;;;;;;5087664;27;45457;-79
2022/05/10 13:35:20;;;;;;;;;14.00;12.33;;;;;;;;5082580;27;46063;-80
2022/05/10 13:37:52;;;;;;;;;10.67;10.67;;;;;;;;5080041;28;45317;-82
2022/05/10 13:40:26;;;;;;;;;12.33;11.67;;;;;;;;5089474;27;45335;-81
2022/05/10 13:42:52;;;;;;;;;13.00;12.33;;;;;;;;5090514;27;45358;-79
2022/05/10 13:45:22;;;;;;;;;14.00;12.67;;;;;;;;5092077;27;45326;-80
2022/05/10 13:47:50;;;;;;;;;12.00;10.67;;;;;;;;5087736;28;45980;-79
2022/05/10 13:50:24;;;;;;;;;12.67;12.67;;;;;;;;5082340;28;45396;-79
2022/05/10 13:52:56;;;;;;;;;12.00;12.00;;;;;;;;5081857;27;45380;-78
2022/05/10 13:55:22;;;;;;;;;13.00;13.00;;;;;;;;5083345;28;47395;-81
2022/05/10 13:57:50;;;;;;;;;12.00;11.67;;;;;;;;5086998;27;45830;-81
2022/05/10 14:00:25;;;;;;;;;11.00;11.00;;;;;;;;5087306;27;45387;-80
2022/05/10 14:02:55;;;;;;;;;13.00;13.00;;;;;;;;5083108;27;45376;-78
2022/05/10 14:05:21;;;;;;;;;12.33;11.00;;;;;;;;5078492;28;47362;-79
2022/05/10 14:07:48;;;;;;;;;10.33;10.33;;;;;;;;5080896;28;45277;-79
2022/05/10 14:10:14;;;;;;;;;11.50;11.50;;;;;;;;5088633;27;45372;-81
2022/05/10 14:12:46;;;;;;;;;12.67;12.33;;;;;;;;5101707;27;46553;-80
2022/05/10 14:15:24;;;;;;;;;12.33;11.33;;;;;;;;5107767;27;45687;-81
2022/05/10 14:18:10;;;;;;;;;11.67;11.67;;;;;;;;5124296;27;45425;-81
2022/05/10 14:20:40;;;;;;;;;12.33;12.33;;;;;;;;5127810;27;44754;-81
2022/05/10 14:23:07;;;;;;;;;10.67;10.67;;;;;;;;5127169;27;45232;-79
2022/05/10 14:25:34;;;;;;;;;12.67;12.67;;;;;;;;5120294;27;47403;-83
2022/05/10 14:28:16;;;;;;;;;13.67;13.33;;;;;;;;5120218;27;45455;-80
2022/05/10 14:30:48;;;;;;;;;11.00;10.67;;;;;;;;5121229;27;45230;-82
2022/05/10 14:33:37;;;;;;;;;11.33;10.67;;;;;;;;5121278;27;45502;-81
2022/05/10 14:36:04;;;;;;;;;10.67;10.67;;;;;;;;5118884;27;45574;-79
2022/05/10 14:38:30;;;;;;;;;11.67;11.67;;;;;;;;5120899;27;46246;-81
2022/05/10 14:40:55;;;;;;;;;8.67;8.67;;;;;;;;5122011;27;45419;-79
2022/05/10 14:43:25;;;;;;;;;12.00;12.00;;;;;;;;5119386;27;46320;-80
2022/05/10 14:45:50;;;;;;;;;10.67;10.67;;;;;;;;5121188;27;46183;-80
2022/05/10 14:48:23;;;;;;;;;8.67;8.67;;;;;;;;5120013;27;45263;-80
2022/05/10 14:50:54;;;;;;;;;11.00;11.00;;;;;;;;5120252;27;45242;-80